createdAt,value
2017-03-14T00:00:26.484Z,63
2017-03-14T00:01:39.909Z,63
2017-03-14T00:02:53.342Z,63
2017-03-14T00:04:06.901Z,63
2017-03-14T00:05:21.612Z,63
2017-03-14T00:06:35.456Z,63
2017-03-14T00:07:48.938Z,63
2017-03-14T00:09:02.862Z,63
2017-03-14T00:10:17.228Z,63
2017-03-14T00:11:31.336Z,63
2017-03-14T00:12:44.804Z,63
2017-03-14T00:13:58.426Z,63
2017-03-14T00:15:12.472Z,63
2017-03-14T00:16:27.159Z,63
2017-03-14T00:17:41.570Z,63
2017-03-14T00:18:56.017Z,63
2017-03-14T00:20:09.512Z,63
2017-03-14T00:21:23.287Z,62
2017-03-14T00:22:36.826Z,63
2017-03-14T00:23:50.340Z,62
2017-03-14T00:25:03.896Z,62
2017-03-14T00:26:17.420Z,62
2017-03-14T00:27:31.199Z,62
2017-03-14T00:28:45.135Z,62
2017-03-14T00:29:59.488Z,62
2017-03-14T00:31:12.943Z,62
2017-03-14T00:32:26.818Z,62
2017-03-14T00:33:41.168Z,62
2017-03-14T00:34:55.072Z,62
2017-03-14T00:36:08.610Z,62
2017-03-14T00:37:22.132Z,62
2017-03-14T00:38:35.607Z,62
2017-03-14T00:39:49.563Z,62
2017-03-14T00:41:03.079Z,62
2017-03-14T00:42:16.972Z,62
2017-03-14T00:43:31.223Z,62
2017-03-14T00:44:44.761Z,62
2017-03-14T00:45:58.308Z,62
2017-03-14T00:47:12.194Z,62
2017-03-14T00:48:25.728Z,62
2017-03-14T00:49:39.601Z,62
2017-03-14T00:50:53.302Z,62
2017-03-14T00:52:07.037Z,62
2017-03-14T00:53:20.930Z,62
2017-03-14T00:54:34.826Z,62
2017-03-14T00:55:54.832Z,62
2017-03-14T00:57:08.728Z,62
2017-03-14T00:58:22.497Z,62
2017-03-14T00:59:35.913Z,62
2017-03-14T01:00:49.306Z,62
2017-03-14T01:02:02.840Z,62
2017-03-14T01:03:16.339Z,62
2017-03-14T01:04:30.493Z,62
2017-03-14T01:05:44.339Z,62
2017-03-14T01:06:57.833Z,62
2017-03-14T01:08:11.703Z,62
2017-03-14T01:09:25.292Z,62
2017-03-14T01:10:38.803Z,62
2017-03-14T01:11:52.863Z,62
2017-03-14T01:13:06.256Z,62
2017-03-14T01:14:19.682Z,62
2017-03-14T01:15:33.945Z,62
2017-03-14T01:16:47.447Z,62
2017-03-14T01:18:01.382Z,62
2017-03-14T01:19:15.190Z,62
2017-03-14T01:20:28.649Z,62
2017-03-14T01:21:42.565Z,62
2017-03-14T01:22:56.014Z,62
2017-03-14T01:24:09.869Z,62
2017-03-14T01:25:23.328Z,62
2017-03-14T01:26:36.808Z,62
2017-03-14T01:27:50.699Z,62
2017-03-14T01:29:04.113Z,62
2017-03-14T01:30:17.540Z,62
2017-03-14T01:31:31.398Z,62
2017-03-14T01:32:45.674Z,62
2017-03-14T01:33:59.191Z,62
2017-03-14T01:35:12.618Z,62
2017-03-14T01:36:26.471Z,62
2017-03-14T01:37:40.411Z,62
2017-03-14T01:38:53.869Z,62
2017-03-14T01:40:07.280Z,62
2017-03-14T01:41:21.160Z,62
2017-03-14T01:42:34.637Z,62
2017-03-14T01:43:48.516Z,62
2017-03-14T01:45:03.341Z,62
2017-03-14T01:46:16.764Z,62
2017-03-14T01:47:30.502Z,62
2017-03-14T01:48:44.544Z,62
2017-03-14T01:49:58.083Z,62
2017-03-14T01:51:11.560Z,62
2017-03-14T01:52:25.411Z,62
2017-03-14T01:53:39.183Z,62
2017-03-14T01:54:53.333Z,62
2017-03-14T01:56:06.835Z,62
2017-03-14T01:57:20.678Z,62
2017-03-14T01:58:34.147Z,62
2017-03-14T01:59:48.165Z,62
2017-03-14T02:01:01.620Z,62
2017-03-14T02:02:15.500Z,62
2017-03-14T02:03:28.938Z,62
2017-03-14T02:04:49.983Z,62
2017-03-14T02:06:09.642Z,62
2017-03-14T02:07:29.963Z,62
2017-03-14T02:08:51.170Z,62
2017-03-14T02:10:11.997Z,62
2017-03-14T02:11:33.465Z,62
2017-03-14T02:12:55.822Z,62
2017-03-14T02:14:14.550Z,62
2017-03-14T02:15:28.529Z,62
2017-03-14T02:16:42.279Z,62
2017-03-14T02:18:08.885Z,62
2017-03-14T02:19:22.722Z,62
2017-03-14T02:20:36.208Z,62
2017-03-14T02:21:50.122Z,62
2017-03-14T02:23:03.597Z,62
2017-03-14T02:24:17.028Z,62
2017-03-14T02:25:30.910Z,62
2017-03-14T02:26:44.358Z,62
2017-03-14T02:27:57.772Z,62
2017-03-14T02:29:11.559Z,62
2017-03-14T02:30:25.063Z,62
2017-03-14T02:31:38.466Z,62
2017-03-14T02:32:51.865Z,62
2017-03-14T02:34:05.315Z,62
2017-03-14T02:35:19.162Z,62
2017-03-14T02:36:32.712Z,62
2017-03-14T02:37:46.176Z,62
2017-03-14T02:38:59.624Z,62
2017-03-14T02:40:13.079Z,62
2017-03-14T02:41:26.541Z,62
2017-03-14T02:42:40.537Z,62
2017-03-14T02:43:53.962Z,62
2017-03-14T02:45:07.809Z,62
2017-03-14T02:46:21.260Z,62
2017-03-14T02:47:35.551Z,62
2017-03-14T02:48:49.047Z,62
2017-03-14T02:50:02.465Z,62
2017-03-14T02:51:15.889Z,62
2017-03-14T02:52:29.435Z,62
2017-03-14T02:53:42.860Z,62
2017-03-14T02:54:56.362Z,62
2017-03-14T02:56:09.802Z,62
2017-03-14T02:57:23.677Z,62
2017-03-14T02:58:37.909Z,62
2017-03-14T02:59:51.756Z,62
2017-03-14T03:01:05.213Z,62
2017-03-14T03:02:18.746Z,62
2017-03-14T03:03:32.154Z,62
2017-03-14T03:04:45.578Z,62
2017-03-14T03:05:59.132Z,62
2017-03-14T03:07:12.591Z,62
2017-03-14T03:08:26.079Z,62
2017-03-14T03:09:41.283Z,62
2017-03-14T03:10:55.121Z,62
2017-03-14T03:12:08.512Z,62
2017-03-14T03:13:22.014Z,62
2017-03-14T03:14:35.551Z,62
2017-03-14T03:15:48.991Z,62
2017-03-14T03:17:02.387Z,62
2017-03-14T03:18:16.395Z,62
2017-03-14T03:19:29.824Z,62
2017-03-14T03:20:43.721Z,62
2017-03-14T03:21:57.745Z,62
2017-03-14T03:23:11.876Z,62
2017-03-14T03:24:25.305Z,62
2017-03-14T03:25:39.553Z,62
2017-03-14T03:26:53.401Z,62
2017-03-14T03:28:07.553Z,62
2017-03-14T03:29:23.261Z,62
2017-03-14T03:30:37.196Z,62
2017-03-14T03:31:50.659Z,62
2017-03-14T03:33:04.501Z,62
2017-03-14T03:34:17.988Z,62
2017-03-14T03:35:31.433Z,62
2017-03-14T03:36:44.858Z,62
2017-03-14T03:37:58.298Z,62
2017-03-14T03:39:11.730Z,62
2017-03-14T03:40:25.685Z,62
2017-03-14T03:41:39.143Z,62
2017-03-14T03:42:52.760Z,62
2017-03-14T03:44:06.209Z,62
2017-03-14T03:45:20.190Z,62
2017-03-14T03:46:34.479Z,62
2017-03-14T03:47:48.194Z,62
2017-03-14T03:49:01.760Z,62
2017-03-14T03:50:15.292Z,62
2017-03-14T03:51:28.731Z,62
2017-03-14T03:52:42.158Z,62
2017-03-14T03:53:56.278Z,62
2017-03-14T03:55:09.725Z,62
2017-03-14T03:56:23.620Z,62
2017-03-14T03:57:37.125Z,62
2017-03-14T03:58:50.561Z,62
2017-03-14T04:00:04.299Z,62
2017-03-14T04:01:17.923Z,62
2017-03-14T04:02:31.392Z,62
2017-03-14T04:03:45.388Z,62
2017-03-14T04:04:58.805Z,62
2017-03-14T04:06:12.581Z,62
2017-03-14T04:07:26.035Z,62
2017-03-14T04:08:39.538Z,62
2017-03-14T04:09:52.960Z,62
2017-03-14T04:11:06.862Z,62
2017-03-14T04:12:20.330Z,62
2017-03-14T04:13:33.770Z,62
2017-03-14T04:14:47.280Z,62
2017-03-14T04:16:00.795Z,62
2017-03-14T04:17:14.575Z,62
2017-03-14T04:18:28.483Z,62
2017-03-14T04:19:42.373Z,62
2017-03-14T04:20:55.781Z,62
2017-03-14T04:22:09.349Z,62
2017-03-14T04:23:22.878Z,62
2017-03-14T04:24:36.575Z,62
2017-03-14T04:25:50.121Z,62
2017-03-14T04:27:03.546Z,62
2017-03-14T04:28:17.189Z,62
2017-03-14T04:29:30.629Z,62
2017-03-14T04:30:44.067Z,62
2017-03-14T04:31:57.892Z,62
2017-03-14T04:33:11.400Z,62
2017-03-14T04:34:25.312Z,62
2017-03-14T04:35:38.751Z,62
2017-03-14T04:36:52.224Z,62
2017-03-14T04:38:05.731Z,62
2017-03-14T04:39:51.459Z,62
2017-03-14T04:41:05.349Z,62
2017-03-14T04:42:18.864Z,62
2017-03-14T04:43:32.391Z,62
2017-03-14T04:44:45.877Z,62
2017-03-14T04:46:01.491Z,62
2017-03-14T04:47:14.953Z,62
2017-03-14T04:48:28.901Z,62
2017-03-14T04:49:42.411Z,62
2017-03-14T04:50:55.877Z,62
2017-03-14T04:52:09.389Z,62
2017-03-14T04:53:22.982Z,63
2017-03-14T04:54:36.455Z,63
2017-03-14T04:55:49.884Z,63
2017-03-14T04:57:03.292Z,63
2017-03-14T04:58:16.721Z,63
2017-03-14T04:59:30.365Z,63
2017-03-14T05:00:43.918Z,63
2017-03-14T05:01:57.747Z,63
2017-03-14T05:03:11.586Z,63
2017-03-14T05:04:25.530Z,63
2017-03-14T05:05:39.088Z,63
2017-03-14T05:06:52.936Z,63
2017-03-14T05:08:06.653Z,63
2017-03-14T05:09:20.175Z,63
2017-03-14T05:10:33.654Z,63
2017-03-14T05:11:47.060Z,63
2017-03-14T05:13:00.747Z,63
2017-03-14T05:14:14.340Z,63
2017-03-14T05:15:43.003Z,63
2017-03-14T05:16:56.445Z,63
2017-03-14T05:18:09.907Z,63
2017-03-14T05:19:23.359Z,63
2017-03-14T05:20:37.899Z,63
2017-03-14T05:21:55.011Z,63
2017-03-14T05:23:09.528Z,63
2017-03-14T05:24:23.393Z,63
2017-03-14T05:25:37.730Z,62
2017-03-14T05:26:51.246Z,62
2017-03-14T05:28:05.629Z,62
2017-03-14T05:29:19.090Z,62
2017-03-14T05:30:32.954Z,62
2017-03-14T05:31:46.468Z,62
2017-03-14T05:32:59.938Z,62
2017-03-14T05:34:13.531Z,62
2017-03-14T05:35:26.961Z,62
2017-03-14T05:36:40.929Z,62
2017-03-14T05:37:54.338Z,62
2017-03-14T05:39:08.177Z,62
2017-03-14T05:40:21.651Z,62
2017-03-14T05:41:35.580Z,62
2017-03-14T05:42:49.656Z,62
2017-03-14T05:44:03.130Z,62
2017-03-14T05:45:17.009Z,62
2017-03-14T05:46:30.417Z,63
2017-03-14T05:47:44.408Z,63
2017-03-14T05:48:57.947Z,63
2017-03-14T05:50:11.410Z,63
2017-03-14T05:51:24.907Z,63
2017-03-14T05:52:38.804Z,63
2017-03-14T05:53:52.303Z,63
2017-03-14T05:55:05.939Z,63
2017-03-14T05:56:19.411Z,63
2017-03-14T05:57:33.329Z,63
2017-03-14T05:58:46.753Z,63
2017-03-14T06:00:00.658Z,63
2017-03-14T06:01:14.179Z,63
2017-03-14T06:02:30.287Z,63
2017-03-14T06:03:43.983Z,63
2017-03-14T06:04:57.488Z,63
2017-03-14T06:06:10.953Z,63
2017-03-14T06:07:24.877Z,63
2017-03-14T06:08:38.837Z,63
2017-03-14T06:09:53.461Z,63
2017-03-14T06:11:06.922Z,63
2017-03-14T06:12:20.400Z,63
2017-03-14T06:13:34.351Z,63
2017-03-14T06:14:48.685Z,63
2017-03-14T06:16:02.117Z,63
2017-03-14T06:17:16.024Z,63
2017-03-14T06:18:30.370Z,63
2017-03-14T06:19:43.896Z,63
2017-03-14T06:20:57.437Z,63
2017-03-14T06:22:10.917Z,63
2017-03-14T06:23:24.360Z,63
2017-03-14T06:24:37.903Z,63
2017-03-14T06:25:51.854Z,63
2017-03-14T06:27:05.299Z,63
2017-03-14T06:28:20.280Z,63
2017-03-14T06:29:33.760Z,63
2017-03-14T06:30:47.324Z,63
2017-03-14T06:32:01.168Z,63
2017-03-14T06:33:15.086Z,63
2017-03-14T06:34:29.059Z,63
2017-03-14T06:35:43.960Z,63
2017-03-14T06:36:57.585Z,63
2017-03-14T06:38:11.124Z,63
2017-03-14T06:39:25.339Z,63
2017-03-14T06:40:39.016Z,63
2017-03-14T06:41:52.548Z,63
2017-03-14T06:43:06.053Z,63
2017-03-14T06:44:20.029Z,63
2017-03-14T06:45:34.041Z,63
2017-03-14T06:46:47.984Z,63
2017-03-14T06:48:01.913Z,63
2017-03-14T06:49:15.547Z,63
2017-03-14T06:50:29.920Z,63
2017-03-14T06:51:43.691Z,63
2017-03-14T06:52:57.792Z,63
2017-03-14T06:54:11.391Z,63
2017-03-14T06:55:24.872Z,63
2017-03-14T06:56:38.806Z,64
2017-03-14T06:57:53.182Z,64
2017-03-14T06:59:07.144Z,64
2017-03-14T07:00:20.669Z,64
2017-03-14T07:01:34.496Z,64
2017-03-14T07:02:48.269Z,64
2017-03-14T07:04:02.129Z,64
2017-03-14T07:05:15.702Z,64
2017-03-14T07:06:29.190Z,64
2017-03-14T07:07:43.915Z,64
2017-03-14T07:08:57.904Z,64
2017-03-14T07:10:11.491Z,64
2017-03-14T07:11:25.298Z,64
2017-03-14T07:12:39.384Z,64
2017-03-14T07:13:52.913Z,64
2017-03-14T07:15:06.377Z,64
2017-03-14T07:16:19.985Z,64
2017-03-14T07:17:33.747Z,64
2017-03-14T07:18:49.948Z,64
2017-03-14T07:20:03.459Z,64
2017-03-14T07:21:17.266Z,64
2017-03-14T07:22:30.728Z,64
2017-03-14T07:23:44.325Z,64
2017-03-14T07:24:58.246Z,64
2017-03-14T07:26:11.890Z,64
2017-03-14T07:27:26.171Z,64
2017-03-14T07:28:39.717Z,64
2017-03-14T07:29:53.242Z,65
2017-03-14T07:31:07.226Z,65
2017-03-14T07:32:21.433Z,65
2017-03-14T07:33:35.319Z,65
2017-03-14T07:34:48.853Z,65
2017-03-14T07:36:02.828Z,65
2017-03-14T07:37:16.233Z,65
2017-03-14T07:38:29.850Z,65
2017-03-14T07:39:44.321Z,65
2017-03-14T07:40:57.878Z,65
2017-03-14T07:42:12.199Z,65
2017-03-14T07:44:29.737Z,65
2017-03-14T07:45:43.530Z,65
2017-03-14T07:46:57.037Z,65
2017-03-14T07:48:10.966Z,65
2017-03-14T07:49:24.539Z,65
2017-03-14T07:50:38.069Z,65
2017-03-14T07:51:51.592Z,66
2017-03-14T07:53:08.423Z,66
2017-03-14T07:54:22.744Z,66
2017-03-14T07:55:36.346Z,66
2017-03-14T07:56:50.306Z,66
2017-03-14T07:58:05.037Z,66
2017-03-14T07:59:18.971Z,66
2017-03-14T08:00:32.467Z,66
2017-03-14T08:01:45.989Z,66
2017-03-14T08:02:59.468Z,66
2017-03-14T08:04:12.940Z,66
2017-03-14T08:05:26.609Z,66
2017-03-14T08:06:40.242Z,66
2017-03-14T08:07:53.747Z,66
2017-03-14T08:09:07.204Z,66
2017-03-14T08:10:20.721Z,66
2017-03-14T08:11:34.289Z,66
2017-03-14T08:12:47.954Z,66
2017-03-14T08:14:01.389Z,66
2017-03-14T08:15:15.018Z,66
2017-03-14T08:16:28.593Z,66
2017-03-14T08:17:42.151Z,67
2017-03-14T08:18:56.924Z,67
2017-03-14T08:20:10.359Z,67
2017-03-14T08:21:23.815Z,67
2017-03-14T08:22:38.025Z,67
2017-03-14T08:23:52.053Z,67
2017-03-14T08:25:05.529Z,67
2017-03-14T08:26:19.027Z,67
2017-03-14T08:27:32.567Z,67
2017-03-14T08:28:46.126Z,67
2017-03-14T08:30:00.113Z,67
2017-03-14T08:31:14.582Z,67
2017-03-14T08:32:28.227Z,67
2017-03-14T08:33:42.233Z,67
2017-03-14T08:34:56.032Z,67
2017-03-14T08:36:11.743Z,68
2017-03-14T08:37:25.946Z,68
2017-03-14T08:38:39.948Z,68
2017-03-14T08:39:53.580Z,68
2017-03-14T08:41:07.369Z,68
2017-03-14T08:42:21.565Z,68
2017-03-14T08:43:35.781Z,68
2017-03-14T08:44:49.311Z,68
2017-03-14T08:46:02.913Z,68
2017-03-14T08:47:16.827Z,68
2017-03-14T08:48:30.530Z,68
2017-03-14T08:49:44.009Z,68
2017-03-14T08:50:58.004Z,69
2017-03-14T08:52:11.553Z,69
2017-03-14T08:53:25.472Z,69
2017-03-14T08:54:40.189Z,69
2017-03-14T08:55:53.718Z,69
2017-03-14T08:57:07.672Z,69
2017-03-14T08:58:21.169Z,69
2017-03-14T08:59:34.952Z,69
2017-03-14T09:00:48.480Z,69
2017-03-14T09:02:02.429Z,69
2017-03-14T09:03:16.596Z,69
2017-03-14T09:04:30.572Z,69
2017-03-14T09:05:44.619Z,69
2017-03-14T09:06:58.997Z,70
2017-03-14T09:08:12.534Z,70
2017-03-14T09:09:26.436Z,70
2017-03-14T09:10:39.864Z,70
2017-03-14T09:11:53.323Z,70
2017-03-14T09:13:07.230Z,70
2017-03-14T09:14:20.797Z,70
2017-03-14T09:15:34.455Z,70
2017-03-14T09:16:48.495Z,70
2017-03-14T09:18:02.421Z,70
2017-03-14T09:19:16.279Z,70
2017-03-14T09:20:30.291Z,70
2017-03-14T09:21:44.186Z,70
2017-03-14T09:22:57.760Z,71
2017-03-14T09:24:11.245Z,71
2017-03-14T09:26:42.389Z,71
2017-03-14T09:27:56.051Z,71
2017-03-14T09:29:09.561Z,71
2017-03-14T09:30:24.144Z,71
2017-03-14T09:31:37.746Z,71
2017-03-14T09:32:51.309Z,71
2017-03-14T09:34:04.878Z,71
2017-03-14T09:35:24.843Z,71
2017-03-14T09:36:39.005Z,71
2017-03-14T09:37:52.467Z,71
2017-03-14T09:39:06.305Z,71
2017-03-14T09:40:20.404Z,71
2017-03-14T09:41:33.933Z,71
2017-03-14T09:42:48.800Z,71
2017-03-14T09:44:02.426Z,71
2017-03-14T09:45:16.076Z,71
2017-03-14T09:46:29.621Z,71
2017-03-14T09:47:43.119Z,71
2017-03-14T09:48:56.863Z,71
2017-03-14T09:50:10.807Z,71
2017-03-14T09:51:25.276Z,71
2017-03-14T09:52:38.828Z,71
2017-03-14T09:53:54.810Z,71
2017-03-14T09:55:08.867Z,71
2017-03-14T09:56:22.488Z,71
2017-03-14T09:57:36.301Z,71
2017-03-14T09:58:50.326Z,71
2017-03-14T10:00:04.301Z,71
2017-03-14T10:01:18.276Z,71
2017-03-14T10:02:32.207Z,71
2017-03-14T10:03:45.820Z,71
2017-03-14T10:04:59.397Z,71
2017-03-14T10:06:13.509Z,71
2017-03-14T10:07:27.331Z,71
2017-03-14T10:08:41.480Z,71
2017-03-14T10:09:55.900Z,71
2017-03-14T10:11:09.438Z,71
2017-03-14T10:12:23.454Z,71
2017-03-14T10:13:37.463Z,72
2017-03-14T10:14:50.975Z,72
2017-03-14T10:16:05.035Z,72
2017-03-14T10:17:18.788Z,72
2017-03-14T10:18:33.219Z,72
2017-03-14T10:19:47.072Z,72
2017-03-14T10:21:01.078Z,72
2017-03-14T10:22:14.589Z,72
2017-03-14T10:23:28.134Z,72
2017-03-14T10:24:42.374Z,72
2017-03-14T10:25:56.465Z,72
2017-03-14T10:27:10.813Z,72
2017-03-14T10:28:24.343Z,72
2017-03-14T10:29:37.973Z,72
2017-03-14T10:30:52.360Z,72
2017-03-14T10:32:06.253Z,72
2017-03-14T10:33:20.066Z,72
2017-03-14T10:34:33.878Z,72
2017-03-14T10:35:48.098Z,72
2017-03-14T10:37:01.895Z,72
2017-03-14T10:38:16.073Z,72
2017-03-14T10:39:29.772Z,72
2017-03-14T10:40:43.305Z,72
2017-03-14T10:41:56.791Z,72
2017-03-14T10:43:10.321Z,72
2017-03-14T10:44:24.209Z,72
2017-03-14T10:45:37.715Z,72
2017-03-14T10:46:51.235Z,72
2017-03-14T10:48:05.122Z,72
2017-03-14T10:49:18.965Z,72
2017-03-14T10:50:33.250Z,72
2017-03-14T10:51:46.774Z,72
2017-03-14T10:53:00.261Z,72
2017-03-14T10:54:14.147Z,72
2017-03-14T10:55:28.226Z,72
2017-03-14T10:56:42.039Z,72
2017-03-14T10:57:55.674Z,72
2017-03-14T10:59:09.249Z,72
2017-03-14T11:00:23.076Z,72
2017-03-14T11:01:36.569Z,72
2017-03-14T11:02:50.521Z,72
2017-03-14T11:04:04.383Z,72
2017-03-14T11:05:17.968Z,72
2017-03-14T11:06:31.602Z,72
2017-03-14T11:07:46.891Z,72
2017-03-14T11:09:01.376Z,72
2017-03-14T11:10:17.156Z,72
2017-03-14T11:11:31.020Z,72
2017-03-14T11:12:44.897Z,72
2017-03-14T11:14:09.431Z,72
2017-03-14T11:15:27.458Z,72
2017-03-14T11:16:42.034Z,72
2017-03-14T11:17:56.016Z,72
2017-03-14T11:19:10.666Z,72
2017-03-14T11:20:29.131Z,72
2017-03-14T11:21:52.434Z,72
2017-03-14T11:23:07.862Z,72
2017-03-14T11:24:22.999Z,72
2017-03-14T11:25:38.087Z,72
2017-03-14T11:26:52.214Z,72
2017-03-14T11:28:08.365Z,72
2017-03-14T11:29:22.418Z,72
2017-03-14T11:30:36.685Z,72
2017-03-14T11:31:50.545Z,72
2017-03-14T11:33:04.061Z,72
2017-03-14T11:34:17.924Z,72
2017-03-14T11:35:32.149Z,72
2017-03-14T11:36:48.004Z,72
2017-03-14T11:38:06.753Z,73
2017-03-14T11:39:23.891Z,73
2017-03-14T11:40:40.422Z,73
2017-03-14T11:41:54.261Z,73
2017-03-14T11:43:07.777Z,73
2017-03-14T11:44:21.356Z,73
2017-03-14T11:45:35.284Z,73
2017-03-14T11:46:48.721Z,73
2017-03-14T11:48:02.282Z,73
2017-03-14T11:49:16.238Z,73
2017-03-14T11:50:30.587Z,73
2017-03-14T11:51:45.593Z,73
2017-03-14T11:52:59.180Z,73
2017-03-14T11:54:12.976Z,73
2017-03-14T11:55:26.477Z,73
2017-03-14T11:56:40.067Z,73
2017-03-14T11:57:53.893Z,73
2017-03-14T11:59:08.941Z,73
2017-03-14T12:00:22.670Z,73
2017-03-14T12:01:36.272Z,73
2017-03-14T12:02:50.188Z,73
2017-03-14T12:04:03.657Z,73
2017-03-14T12:05:17.212Z,73
2017-03-14T12:06:31.235Z,73
2017-03-14T12:07:44.780Z,73
2017-03-14T12:08:58.913Z,73
2017-03-14T12:10:12.962Z,73
2017-03-14T12:11:26.411Z,73
2017-03-14T12:12:39.966Z,73
2017-03-14T12:13:53.479Z,73
2017-03-14T12:15:07.368Z,73
2017-03-14T12:16:21.706Z,73
2017-03-14T12:17:35.643Z,73
2017-03-14T12:18:49.255Z,73
2017-03-14T12:20:03.125Z,73
2017-03-14T12:21:16.694Z,73
2017-03-14T12:22:30.549Z,73
2017-03-14T12:23:44.524Z,73
2017-03-14T12:24:58.014Z,73
2017-03-14T12:26:11.457Z,73
2017-03-14T12:27:27.483Z,73
2017-03-14T12:28:41.014Z,73
2017-03-14T12:29:54.486Z,73
2017-03-14T12:31:08.013Z,73
2017-03-14T12:32:21.814Z,73
2017-03-14T12:33:35.738Z,73
2017-03-14T12:34:49.150Z,73
2017-03-14T12:36:03.401Z,73
2017-03-14T12:37:17.431Z,73
2017-03-14T12:38:31.126Z,73
2017-03-14T12:39:45.119Z,73
2017-03-14T12:40:59.081Z,73
2017-03-14T12:42:13.091Z,74
2017-03-14T12:43:26.668Z,74
2017-03-14T12:45:23.873Z,74
2017-03-14T12:46:37.795Z,74
2017-03-14T12:47:51.590Z,74
2017-03-14T12:49:05.559Z,74
2017-03-14T12:50:19.162Z,74
2017-03-14T12:51:32.882Z,74
2017-03-14T12:52:46.804Z,74
2017-03-14T12:54:00.791Z,74
2017-03-14T12:55:14.290Z,74
2017-03-14T12:56:27.846Z,74
2017-03-14T12:57:42.039Z,74
2017-03-14T12:58:55.584Z,74
2017-03-14T13:00:09.421Z,74
2017-03-14T13:01:23.349Z,74
2017-03-14T13:02:37.244Z,74
2017-03-14T13:03:50.776Z,74
2017-03-14T13:05:20.157Z,74
2017-03-14T13:06:34.152Z,74
2017-03-14T13:07:47.698Z,74
2017-03-14T13:09:01.238Z,74
2017-03-14T13:10:15.224Z,74
2017-03-14T13:11:29.049Z,74
2017-03-14T13:12:42.615Z,74
2017-03-14T13:13:56.132Z,74
2017-03-14T13:15:10.400Z,74
2017-03-14T13:16:24.289Z,74
2017-03-14T13:17:37.807Z,74
2017-03-14T13:18:51.977Z,74
2017-03-14T13:20:05.562Z,74
2017-03-14T13:21:19.444Z,74
2017-03-14T13:22:32.895Z,74
2017-03-14T13:23:47.066Z,74
2017-03-14T13:25:00.495Z,74
2017-03-14T13:26:14.961Z,74
2017-03-14T13:27:28.492Z,74
2017-03-14T13:28:42.308Z,75
2017-03-14T13:29:55.963Z,75
2017-03-14T13:31:10.115Z,75
2017-03-14T13:32:23.951Z,75
2017-03-14T13:33:37.529Z,75
2017-03-14T13:34:51.047Z,75
2017-03-14T13:36:04.495Z,75
2017-03-14T13:37:33.525Z,75
2017-03-14T13:38:47.375Z,75
2017-03-14T13:40:01.233Z,75
2017-03-14T13:41:15.257Z,75
2017-03-14T13:42:29.524Z,75
2017-03-14T13:43:43.843Z,75
2017-03-14T13:44:59.754Z,75
2017-03-14T13:46:13.773Z,75
2017-03-14T13:47:27.854Z,75
2017-03-14T13:48:42.218Z,75
2017-03-14T13:49:56.519Z,75
2017-03-14T13:51:10.604Z,75
2017-03-14T13:52:24.706Z,75
2017-03-14T13:53:38.672Z,75
2017-03-14T13:54:52.316Z,75
2017-03-14T13:56:07.139Z,75
2017-03-14T13:57:20.889Z,75
2017-03-14T13:58:34.492Z,75
2017-03-14T13:59:48.686Z,75
2017-03-14T14:01:03.166Z,75
2017-03-14T14:02:16.638Z,75
2017-03-14T14:03:30.330Z,75
2017-03-14T14:04:44.194Z,75
2017-03-14T14:05:58.647Z,75
2017-03-14T14:07:12.986Z,75
2017-03-14T14:08:34.133Z,75
2017-03-14T14:09:47.829Z,75
2017-03-14T14:11:01.397Z,75
2017-03-14T14:12:15.055Z,75
2017-03-14T14:13:29.269Z,75
2017-03-14T14:14:43.360Z,75
2017-03-14T14:15:56.880Z,75
2017-03-14T14:17:10.437Z,75
2017-03-14T14:18:23.942Z,75
2017-03-14T14:19:37.360Z,75
2017-03-14T14:20:51.179Z,75
2017-03-14T14:22:05.012Z,75
2017-03-14T14:23:18.985Z,75
2017-03-14T14:24:32.625Z,75
2017-03-14T14:25:46.139Z,75
2017-03-14T14:26:59.975Z,75
2017-03-14T14:28:14.097Z,75
2017-03-14T14:29:27.728Z,75
2017-03-14T14:30:41.204Z,75
2017-03-14T14:31:54.689Z,75
2017-03-14T14:33:08.179Z,75
2017-03-14T14:34:21.712Z,75
2017-03-14T14:35:35.508Z,75
2017-03-14T14:36:49.412Z,75
2017-03-14T14:38:03.300Z,75
2017-03-14T14:39:16.771Z,75
2017-03-14T14:40:31.137Z,75
2017-03-14T14:41:44.763Z,75
2017-03-14T14:42:58.505Z,75
2017-03-14T14:44:11.975Z,75
2017-03-14T14:45:29.120Z,75
2017-03-14T14:46:46.453Z,75
2017-03-14T14:47:59.944Z,75
2017-03-14T14:49:13.360Z,75
2017-03-14T14:50:26.845Z,75
2017-03-14T14:51:40.298Z,75
2017-03-14T14:52:53.846Z,75
2017-03-14T14:54:08.648Z,75
2017-03-14T14:55:22.145Z,75
2017-03-14T14:56:35.609Z,75
2017-03-14T14:57:49.408Z,75
2017-03-14T14:59:09.299Z,75
2017-03-14T15:00:22.882Z,75
2017-03-14T15:01:39.580Z,76
2017-03-14T15:02:53.072Z,76
2017-03-14T15:04:06.753Z,76
2017-03-14T15:05:20.409Z,76
2017-03-14T15:06:34.608Z,76
2017-03-14T15:07:48.138Z,76
2017-03-14T15:09:02.073Z,76
2017-03-14T15:10:15.639Z,76
2017-03-14T15:11:29.342Z,76
2017-03-14T15:12:42.881Z,76
2017-03-14T15:13:56.386Z,76
2017-03-14T15:15:09.933Z,76
2017-03-14T15:16:23.566Z,76
2017-03-14T15:17:37.239Z,76
2017-03-14T15:18:50.785Z,76
2017-03-14T15:20:04.639Z,76
2017-03-14T15:21:18.602Z,76
2017-03-14T15:22:32.542Z,76
2017-03-14T15:23:46.251Z,76
2017-03-14T15:24:59.794Z,76
2017-03-14T15:26:14.022Z,76
2017-03-14T15:27:27.690Z,76
2017-03-14T15:29:15.033Z,76
2017-03-14T15:30:29.491Z,76
2017-03-14T15:31:43.816Z,76
2017-03-14T15:32:57.857Z,76
2017-03-14T15:34:11.903Z,76
2017-03-14T15:35:26.451Z,76
2017-03-14T15:36:40.967Z,76
2017-03-14T15:37:55.211Z,76
2017-03-14T15:39:08.707Z,76
2017-03-14T15:40:22.171Z,76
2017-03-14T15:41:36.160Z,76
2017-03-14T15:42:49.694Z,76
2017-03-14T15:44:03.583Z,76
2017-03-14T15:45:17.523Z,76
2017-03-14T15:46:31.753Z,76
2017-03-14T15:47:46.119Z,76
2017-03-14T15:48:59.905Z,76
2017-03-14T15:50:15.428Z,76
2017-03-14T15:51:28.910Z,76
2017-03-14T15:52:47.974Z,76
2017-03-14T15:54:02.153Z,76
2017-03-14T15:55:16.858Z,76
2017-03-14T15:56:31.061Z,76
2017-03-14T15:57:44.985Z,76
2017-03-14T15:58:59.103Z,76
2017-03-14T16:00:13.081Z,76
2017-03-14T16:01:26.660Z,76
2017-03-14T16:02:40.187Z,76
2017-03-14T16:03:54.143Z,76
2017-03-14T16:05:07.659Z,76
2017-03-14T16:06:21.091Z,76
2017-03-14T16:07:34.569Z,76
2017-03-14T16:08:48.302Z,76
2017-03-14T16:10:02.104Z,76
2017-03-14T16:11:16.653Z,76
2017-03-14T16:12:30.305Z,76
2017-03-14T16:13:43.899Z,76
2017-03-14T16:14:57.633Z,76
2017-03-14T16:16:11.494Z,76
2017-03-14T16:17:26.471Z,76
2017-03-14T16:18:42.617Z,76
2017-03-14T16:19:56.759Z,76
2017-03-14T16:21:10.317Z,76
2017-03-14T16:22:24.100Z,76
2017-03-14T16:23:37.835Z,76
2017-03-14T16:24:51.380Z,76
2017-03-14T16:26:05.733Z,76
2017-03-14T16:27:19.527Z,76
2017-03-14T16:28:33.014Z,75
2017-03-14T16:29:46.801Z,75
2017-03-14T16:31:00.264Z,75
2017-03-14T16:32:13.738Z,75
2017-03-14T16:33:27.542Z,75
2017-03-14T16:34:41.049Z,75
2017-03-14T16:35:54.652Z,75
2017-03-14T16:37:08.157Z,75
2017-03-14T16:38:22.029Z,75
2017-03-14T16:39:36.146Z,75
2017-03-14T16:40:50.369Z,75
2017-03-14T16:42:03.863Z,75
2017-03-14T16:43:17.369Z,75
2017-03-14T16:44:31.181Z,75
2017-03-14T16:45:45.375Z,75
2017-03-14T16:46:58.843Z,75
2017-03-14T16:48:12.719Z,75
2017-03-14T16:49:26.268Z,74
2017-03-14T16:50:40.324Z,74
2017-03-14T16:51:54.525Z,74
2017-03-14T16:53:08.069Z,74
2017-03-14T16:54:22.202Z,74
2017-03-14T16:55:35.660Z,74
2017-03-14T16:56:49.351Z,74
2017-03-14T16:58:03.182Z,74
2017-03-14T16:59:16.682Z,74
2017-03-14T17:00:30.171Z,74
2017-03-14T17:01:44.085Z,74
2017-03-14T17:02:57.872Z,74
2017-03-14T17:04:11.499Z,74
2017-03-14T17:05:25.287Z,74
2017-03-14T17:06:38.772Z,74
2017-03-14T17:07:52.430Z,74
2017-03-14T17:09:06.387Z,74
2017-03-14T17:10:20.196Z,74
2017-03-14T17:11:33.708Z,74
2017-03-14T17:12:47.298Z,74
2017-03-14T17:14:01.152Z,74
2017-03-14T17:15:15.032Z,74
2017-03-14T17:16:29.091Z,74
2017-03-14T17:17:42.685Z,74
2017-03-14T17:18:56.549Z,74
2017-03-14T17:20:10.091Z,74
2017-03-14T17:21:23.627Z,74
2017-03-14T17:22:37.861Z,74
2017-03-14T17:24:06.380Z,73
2017-03-14T17:25:19.990Z,73
2017-03-14T17:26:33.640Z,74
2017-03-14T17:27:48.139Z,73
2017-03-14T17:29:01.754Z,73
2017-03-14T17:30:15.362Z,73
2017-03-14T17:31:28.871Z,73
2017-03-14T17:32:42.403Z,73
2017-03-14T17:33:55.874Z,73
2017-03-14T17:35:11.663Z,73
2017-03-14T17:36:25.869Z,73
2017-03-14T17:37:39.381Z,73
2017-03-14T17:38:52.884Z,73
2017-03-14T17:40:06.454Z,73